sensor_id;sensor_type;location;lat;lon;timestamp;temperature;humidity
52203;DHT22;38173;52.850;6.970;2023-09-19T00:00:23;14.80;99.90
52203;DHT22;38173;52.850;6.970;2023-09-19T00:02:55;14.70;99.90
52203;DHT22;38173;52.850;6.970;2023-09-19T00:05:29;14.70;99.90
52203;DHT22;38173;52.850;6.970;2023-09-19T00:08:00;14.70;99.90
52203;DHT22;38173;52.850;6.970;2023-09-19T00:10:27;14.70;99.90
52203;DHT22;38173;52.850;6.970;2023-09-19T00:13:00;14.60;99.90
52203;DHT22;38173;52.850;6.970;2023-09-19T00:15:27;14.60;99.90
52203;DHT22;38173;52.850;6.970;2023-09-19T00:17:55;14.50;99.90
52203;DHT22;38173;52.850;6.970;2023-09-19T00:20:22;14.50;99.90
52203;DHT22;38173;52.850;6.970;2023-09-19T00:22:51;14.40;99.90
52203;DHT22;38173;52.850;6.970;2023-09-19T00:25:19;14.30;99.90
52203;DHT22;38173;52.850;6.970;2023-09-19T00:27:49;14.20;99.90
52203;DHT22;38173;52.850;6.970;2023-09-19T00:30:17;14.10;99.90
52203;DHT22;38173;52.850;6.970;2023-09-19T00:32:50;14.10;99.90
52203;DHT22;38173;52.850;6.970;2023-09-19T00:35:18;14.00;99.90
52203;DHT22;38173;52.850;6.970;2023-09-19T00:37:44;13.90;99.90
52203;DHT22;38173;52.850;6.970;2023-09-19T00:40:11;13.90;99.90
52203;DHT22;38173;52.850;6.970;2023-09-19T00:42:45;13.80;99.90
52203;DHT22;38173;52.850;6.970;2023-09-19T00:45:12;13.70;99.90
52203;DHT22;38173;52.850;6.970;2023-09-19T00:47:43;13.70;99.90
52203;DHT22;38173;52.850;6.970;2023-09-19T00:50:09;13.60;99.90
52203;DHT22;38173;52.850;6.970;2023-09-19T00:52:39;13.60;99.90
52203;DHT22;38173;52.850;6.970;2023-09-19T00:55:09;13.50;99.90
52203;DHT22;38173;52.850;6.970;2023-09-19T00:57:36;13.50;99.90
52203;DHT22;38173;52.850;6.970;2023-09-19T01:00:04;13.50;99.90
52203;DHT22;38173;52.850;6.970;2023-09-19T01:02:32;13.40;99.90
52203;DHT22;38173;52.850;6.970;2023-09-19T01:04:58;13.40;99.90
52203;DHT22;38173;52.850;6.970;2023-09-19T01:07:25;13.40;99.90
52203;DHT22;38173;52.850;6.970;2023-09-19T01:09:51;13.30;99.90
52203;DHT22;38173;52.850;6.970;2023-09-19T01:12:25;13.30;99.90
52203;DHT22;38173;52.850;6.970;2023-09-19T01:15:09;13.30;99.90
52203;DHT22;38173;52.850;6.970;2023-09-19T01:20:52;13.30;99.90
52203;DHT22;38173;52.850;6.970;2023-09-19T01:23:28;13.30;99.90
52203;DHT22;38173;52.850;6.970;2023-09-19T01:26:07;13.30;99.90
52203;DHT22;38173;52.850;6.970;2023-09-19T01:28:52;13.30;99.90
52203;DHT22;38173;52.850;6.970;2023-09-19T01:31:21;13.30;99.90
52203;DHT22;38173;52.850;6.970;2023-09-19T01:33:57;13.30;99.90
52203;DHT22;38173;52.850;6.970;2023-09-19T01:36:31;13.30;99.90
52203;DHT22;38173;52.850;6.970;2023-09-19T01:39:05;13.20;99.90
52203;DHT22;38173;52.850;6.970;2023-09-19T01:44:24;13.20;99.90
52203;DHT22;38173;52.850;6.970;2023-09-19T01:46:52;13.20;99.90
52203;DHT22;38173;52.850;6.970;2023-09-19T01:49:42;13.20;99.90
52203;DHT22;38173;52.850;6.970;2023-09-19T01:52:15;13.20;99.90
52203;DHT22;38173;52.850;6.970;2023-09-19T01:54:50;13.20;99.90
52203;DHT22;38173;52.850;6.970;2023-09-19T01:57:26;13.20;99.90
52203;DHT22;38173;52.850;6.970;2023-09-19T02:00:02;13.20;99.90
52203;DHT22;38173;52.850;6.970;2023-09-19T02:02:37;13.20;99.90
52203;DHT22;38173;52.850;6.970;2023-09-19T02:05:04;13.20;99.90
52203;DHT22;38173;52.850;6.970;2023-09-19T02:07:30;13.10;99.90
52203;DHT22;38173;52.850;6.970;2023-09-19T02:09:59;13.10;99.90
52203;DHT22;38173;52.850;6.970;2023-09-19T02:12:30;13.10;99.90
52203;DHT22;38173;52.850;6.970;2023-09-19T02:14:58;13.10;99.90
52203;DHT22;38173;52.850;6.970;2023-09-19T02:17:25;13.10;99.90
52203;DHT22;38173;52.850;6.970;2023-09-19T02:19:55;13.10;99.90
52203;DHT22;38173;52.850;6.970;2023-09-19T02:22:23;13.10;99.90
52203;DHT22;38173;52.850;6.970;2023-09-19T02:24:50;13.10;99.90
52203;DHT22;38173;52.850;6.970;2023-09-19T02:27:16;13.00;99.90
52203;DHT22;38173;52.850;6.970;2023-09-19T02:29:43;13.00;99.90
52203;DHT22;38173;52.850;6.970;2023-09-19T02:32:09;13.00;99.90
52203;DHT22;38173;52.850;6.970;2023-09-19T02:34:37;13.00;99.90
52203;DHT22;38173;52.850;6.970;2023-09-19T02:37:07;13.00;99.90
52203;DHT22;38173;52.850;6.970;2023-09-19T02:39:36;13.00;99.90
52203;DHT22;38173;52.850;6.970;2023-09-19T02:42:02;13.00;99.90
52203;DHT22;38173;52.850;6.970;2023-09-19T02:44:29;13.00;99.90
52203;DHT22;38173;52.850;6.970;2023-09-19T02:46:55;13.00;99.90
52203;DHT22;38173;52.850;6.970;2023-09-19T02:49:22;12.90;99.90
52203;DHT22;38173;52.850;6.970;2023-09-19T02:51:48;12.90;99.90
52203;DHT22;38173;52.850;6.970;2023-09-19T02:54:14;12.90;99.90
52203;DHT22;38173;52.850;6.970;2023-09-19T02:56:41;12.90;99.90
52203;DHT22;38173;52.850;6.970;2023-09-19T02:59:07;12.90;99.90
52203;DHT22;38173;52.850;6.970;2023-09-19T03:01:35;12.90;99.90
52203;DHT22;38173;52.850;6.970;2023-09-19T03:04:02;12.90;99.90
52203;DHT22;38173;52.850;6.970;2023-09-19T03:06:28;12.80;99.90
52203;DHT22;38173;52.850;6.970;2023-09-19T03:08:56;12.90;99.90
52203;DHT22;38173;52.850;6.970;2023-09-19T03:11:22;12.90;99.90
52203;DHT22;38173;52.850;6.970;2023-09-19T03:13:52;12.80;99.90
52203;DHT22;38173;52.850;6.970;2023-09-19T03:16:18;12.90;99.90
52203;DHT22;38173;52.850;6.970;2023-09-19T03:18:47;12.80;99.90
52203;DHT22;38173;52.850;6.970;2023-09-19T03:21:15;12.80;99.90
52203;DHT22;38173;52.850;6.970;2023-09-19T03:23:41;12.80;99.90
52203;DHT22;38173;52.850;6.970;2023-09-19T03:26:11;12.80;99.90
52203;DHT22;38173;52.850;6.970;2023-09-19T03:28:38;12.80;99.90
52203;DHT22;38173;52.850;6.970;2023-09-19T03:31:05;12.70;99.90
52203;DHT22;38173;52.850;6.970;2023-09-19T03:33:32;12.70;99.90
52203;DHT22;38173;52.850;6.970;2023-09-19T03:35:59;12.70;99.90
52203;DHT22;38173;52.850;6.970;2023-09-19T03:38:27;12.70;99.90
52203;DHT22;38173;52.850;6.970;2023-09-19T03:40:54;12.70;99.90
52203;DHT22;38173;52.850;6.970;2023-09-19T03:43:20;12.70;99.90
52203;DHT22;38173;52.850;6.970;2023-09-19T03:45:45;12.70;99.90
52203;DHT22;38173;52.850;6.970;2023-09-19T03:48:13;12.70;99.90
52203;DHT22;38173;52.850;6.970;2023-09-19T03:50:39;12.70;99.90
52203;DHT22;38173;52.850;6.970;2023-09-19T03:53:05;12.70;99.90
52203;DHT22;38173;52.850;6.970;2023-09-19T03:55:33;12.80;99.90
52203;DHT22;38173;52.850;6.970;2023-09-19T03:58:04;12.80;99.90
52203;DHT22;38173;52.850;6.970;2023-09-19T04:00:29;12.90;99.90
52203;DHT22;38173;52.850;6.970;2023-09-19T04:02:56;12.90;99.90
52203;DHT22;38173;52.850;6.970;2023-09-19T04:05:22;12.90;99.90
52203;DHT22;38173;52.850;6.970;2023-09-19T04:07:48;13.00;99.90
52203;DHT22;38173;52.850;6.970;2023-09-19T04:10:15;13.00;99.90
52203;DHT22;38173;52.850;6.970;2023-09-19T04:12:51;13.00;99.90
52203;DHT22;38173;52.850;6.970;2023-09-19T04:15:17;13.00;99.90
52203;DHT22;38173;52.850;6.970;2023-09-19T04:17:43;13.00;99.90
52203;DHT22;38173;52.850;6.970;2023-09-19T04:20:09;13.00;99.90
52203;DHT22;38173;52.850;6.970;2023-09-19T04:22:38;13.00;99.90
52203;DHT22;38173;52.850;6.970;2023-09-19T04:25:05;13.00;99.90
52203;DHT22;38173;52.850;6.970;2023-09-19T04:27:32;13.00;99.90
52203;DHT22;38173;52.850;6.970;2023-09-19T04:29:58;13.00;99.90
52203;DHT22;38173;52.850;6.970;2023-09-19T04:32:28;13.10;99.90
52203;DHT22;38173;52.850;6.970;2023-09-19T04:34:55;13.10;99.90
52203;DHT22;38173;52.850;6.970;2023-09-19T04:37:25;13.10;99.90
52203;DHT22;38173;52.850;6.970;2023-09-19T04:39:51;13.10;99.90
52203;DHT22;38173;52.850;6.970;2023-09-19T04:42:17;13.10;99.90
52203;DHT22;38173;52.850;6.970;2023-09-19T04:44:43;13.10;99.90
52203;DHT22;38173;52.850;6.970;2023-09-19T04:47:09;13.00;99.90
52203;DHT22;38173;52.850;6.970;2023-09-19T04:49:35;13.10;99.90
52203;DHT22;38173;52.850;6.970;2023-09-19T04:52:01;13.10;99.90
52203;DHT22;38173;52.850;6.970;2023-09-19T04:54:29;13.10;99.90
52203;DHT22;38173;52.850;6.970;2023-09-19T04:56:55;13.10;99.90
52203;DHT22;38173;52.850;6.970;2023-09-19T04:59:20;13.10;99.90
52203;DHT22;38173;52.850;6.970;2023-09-19T05:01:46;13.10;99.90
52203;DHT22;38173;52.850;6.970;2023-09-19T05:04:12;13.20;99.90
52203;DHT22;38173;52.850;6.970;2023-09-19T05:06:38;13.20;99.90
52203;DHT22;38173;52.850;6.970;2023-09-19T05:09:04;13.20;99.90
52203;DHT22;38173;52.850;6.970;2023-09-19T05:11:31;13.30;99.90
52203;DHT22;38173;52.850;6.970;2023-09-19T05:13:57;13.30;99.90
52203;DHT22;38173;52.850;6.970;2023-09-19T05:16:22;13.30;99.90
52203;DHT22;38173;52.850;6.970;2023-09-19T05:18:48;13.30;99.90
52203;DHT22;38173;52.850;6.970;2023-09-19T05:21:15;13.30;99.90
52203;DHT22;38173;52.850;6.970;2023-09-19T05:23:40;13.30;99.90
52203;DHT22;38173;52.850;6.970;2023-09-19T05:26:06;13.40;99.90
52203;DHT22;38173;52.850;6.970;2023-09-19T05:28:32;13.30;99.90
52203;DHT22;38173;52.850;6.970;2023-09-19T05:31:00;13.40;99.90
52203;DHT22;38173;52.850;6.970;2023-09-19T05:33:27;13.40;99.90
52203;DHT22;38173;52.850;6.970;2023-09-19T05:35:53;13.40;99.90
52203;DHT22;38173;52.850;6.970;2023-09-19T05:38:19;13.40;99.90
52203;DHT22;38173;52.850;6.970;2023-09-19T05:40:45;13.40;99.90
52203;DHT22;38173;52.850;6.970;2023-09-19T05:43:12;13.30;99.90
52203;DHT22;38173;52.850;6.970;2023-09-19T05:45:39;13.30;99.90
52203;DHT22;38173;52.850;6.970;2023-09-19T05:48:13;13.30;99.90
52203;DHT22;38173;52.850;6.970;2023-09-19T05:50:39;13.30;99.90
52203;DHT22;38173;52.850;6.970;2023-09-19T05:53:05;13.30;99.90
52203;DHT22;38173;52.850;6.970;2023-09-19T05:55:31;13.30;99.90
52203;DHT22;38173;52.850;6.970;2023-09-19T05:57:57;13.30;99.90
52203;DHT22;38173;52.850;6.970;2023-09-19T06:00:24;13.30;99.90
52203;DHT22;38173;52.850;6.970;2023-09-19T06:02:54;13.30;99.90
52203;DHT22;38173;52.850;6.970;2023-09-19T06:05:20;13.20;99.90
52203;DHT22;38173;52.850;6.970;2023-09-19T06:07:46;13.20;99.90
52203;DHT22;38173;52.850;6.970;2023-09-19T06:10:12;13.20;99.90
52203;DHT22;38173;52.850;6.970;2023-09-19T06:12:42;13.20;99.90
52203;DHT22;38173;52.850;6.970;2023-09-19T06:15:13;13.20;99.90
52203;DHT22;38173;52.850;6.970;2023-09-19T06:17:48;13.20;99.90
52203;DHT22;38173;52.850;6.970;2023-09-19T06:20:15;13.20;99.90
52203;DHT22;38173;52.850;6.970;2023-09-19T06:22:43;13.20;99.90
52203;DHT22;38173;52.850;6.970;2023-09-19T06:25:13;13.30;99.90
52203;DHT22;38173;52.850;6.970;2023-09-19T06:27:49;13.30;99.90
52203;DHT22;38173;52.850;6.970;2023-09-19T06:30:18;13.40;99.90
52203;DHT22;38173;52.850;6.970;2023-09-19T06:32:44;13.40;99.90
52203;DHT22;38173;52.850;6.970;2023-09-19T06:35:10;13.60;99.90
52203;DHT22;38173;52.850;6.970;2023-09-19T06:37:42;13.70;99.90
52203;DHT22;38173;52.850;6.970;2023-09-19T06:40:09;13.80;99.90
52203;DHT22;38173;52.850;6.970;2023-09-19T06:42:46;13.90;99.90
52203;DHT22;38173;52.850;6.970;2023-09-19T06:45:14;14.00;99.90
52203;DHT22;38173;52.850;6.970;2023-09-19T06:47:51;14.00;99.90
52203;DHT22;38173;52.850;6.970;2023-09-19T06:50:21;14.00;99.90
52203;DHT22;38173;52.850;6.970;2023-09-19T06:52:54;14.00;99.90
52203;DHT22;38173;52.850;6.970;2023-09-19T06:55:22;13.90;99.90
52203;DHT22;38173;52.850;6.970;2023-09-19T06:57:50;13.80;99.90
52203;DHT22;38173;52.850;6.970;2023-09-19T07:00:16;13.80;99.90
52203;DHT22;38173;52.850;6.970;2023-09-19T07:03:00;13.80;99.90
52203;DHT22;38173;52.850;6.970;2023-09-19T07:05:27;13.80;99.90
52203;DHT22;38173;52.850;6.970;2023-09-19T07:07:53;13.70;99.90
52203;DHT22;38173;52.850;6.970;2023-09-19T07:10:22;13.70;99.90
52203;DHT22;38173;52.850;6.970;2023-09-19T07:13:09;13.70;99.90
52203;DHT22;38173;52.850;6.970;2023-09-19T07:15:36;13.80;99.90
52203;DHT22;38173;52.850;6.970;2023-09-19T07:18:05;13.90;99.90
52203;DHT22;38173;52.850;6.970;2023-09-19T07:20:32;14.00;99.90
52203;DHT22;38173;52.850;6.970;2023-09-19T07:23:01;14.10;99.90
52203;DHT22;38173;52.850;6.970;2023-09-19T07:25:27;14.30;99.90
52203;DHT22;38173;52.850;6.970;2023-09-19T07:27:55;14.40;99.90
52203;DHT22;38173;52.850;6.970;2023-09-19T07:30:22;14.40;99.90
52203;DHT22;38173;52.850;6.970;2023-09-19T07:32:47;14.60;99.90
52203;DHT22;38173;52.850;6.970;2023-09-19T07:35:13;14.60;99.90
52203;DHT22;38173;52.850;6.970;2023-09-19T07:37:40;14.60;99.90
52203;DHT22;38173;52.850;6.970;2023-09-19T07:40:06;14.70;99.90
52203;DHT22;38173;52.850;6.970;2023-09-19T07:42:36;14.70;99.90
52203;DHT22;38173;52.850;6.970;2023-09-19T07:45:04;14.80;99.90
52203;DHT22;38173;52.850;6.970;2023-09-19T07:47:30;14.90;99.90
52203;DHT22;38173;52.850;6.970;2023-09-19T07:49:58;15.00;99.90
52203;DHT22;38173;52.850;6.970;2023-09-19T07:52:24;15.10;99.90
52203;DHT22;38173;52.850;6.970;2023-09-19T07:54:50;15.10;99.90
52203;DHT22;38173;52.850;6.970;2023-09-19T07:57:16;15.10;99.90
52203;DHT22;38173;52.850;6.970;2023-09-19T07:59:41;15.20;99.90
52203;DHT22;38173;52.850;6.970;2023-09-19T08:02:09;15.20;99.90
52203;DHT22;38173;52.850;6.970;2023-09-19T08:04:42;15.30;99.90
52203;DHT22;38173;52.850;6.970;2023-09-19T08:07:08;15.40;99.90
52203;DHT22;38173;52.850;6.970;2023-09-19T08:09:34;15.40;99.90
52203;DHT22;38173;52.850;6.970;2023-09-19T08:12:00;15.50;99.90
52203;DHT22;38173;52.850;6.970;2023-09-19T08:14:30;15.60;99.90
52203;DHT22;38173;52.850;6.970;2023-09-19T08:16:57;15.60;99.90
52203;DHT22;38173;52.850;6.970;2023-09-19T08:19:24;15.70;99.90
52203;DHT22;38173;52.850;6.970;2023-09-19T08:21:57;15.70;99.90
52203;DHT22;38173;52.850;6.970;2023-09-19T08:24:28;15.70;99.90
52203;DHT22;38173;52.850;6.970;2023-09-19T08:26:54;15.70;99.90
52203;DHT22;38173;52.850;6.970;2023-09-19T08:29:22;15.80;99.90
52203;DHT22;38173;52.850;6.970;2023-09-19T08:31:56;15.90;99.90
52203;DHT22;38173;52.850;6.970;2023-09-19T08:34:25;15.90;99.90
52203;DHT22;38173;52.850;6.970;2023-09-19T08:36:54;16.00;99.90
52203;DHT22;38173;52.850;6.970;2023-09-19T08:39:22;16.10;99.90
52203;DHT22;38173;52.850;6.970;2023-09-19T08:41:48;16.10;99.90
52203;DHT22;38173;52.850;6.970;2023-09-19T08:44:13;16.20;99.90
52203;DHT22;38173;52.850;6.970;2023-09-19T08:46:41;16.20;99.90
52203;DHT22;38173;52.850;6.970;2023-09-19T08:52:16;16.30;99.90
52203;DHT22;38173;52.850;6.970;2023-09-19T08:54:47;16.40;99.90
52203;DHT22;38173;52.850;6.970;2023-09-19T08:57:16;16.50;99.90
52203;DHT22;38173;52.850;6.970;2023-09-19T08:59:50;16.60;99.90
52203;DHT22;38173;52.850;6.970;2023-09-19T09:02:16;16.70;99.90
52203;DHT22;38173;52.850;6.970;2023-09-19T09:04:45;16.80;99.90
52203;DHT22;38173;52.850;6.970;2023-09-19T09:07:13;16.90;99.90
52203;DHT22;38173;52.850;6.970;2023-09-19T09:09:39;17.00;99.90
52203;DHT22;38173;52.850;6.970;2023-09-19T09:12:10;17.00;99.90
52203;DHT22;38173;52.850;6.970;2023-09-19T09:14:39;17.10;99.90
52203;DHT22;38173;52.850;6.970;2023-09-19T09:17:05;17.10;99.90
52203;DHT22;38173;52.850;6.970;2023-09-19T09:19:31;17.10;99.90
52203;DHT22;38173;52.850;6.970;2023-09-19T09:22:10;17.10;99.90
52203;DHT22;38173;52.850;6.970;2023-09-19T09:24:37;17.20;99.90
52203;DHT22;38173;52.850;6.970;2023-09-19T09:27:16;17.30;99.90
52203;DHT22;38173;52.850;6.970;2023-09-19T09:29:47;17.40;99.90
52203;DHT22;38173;52.850;6.970;2023-09-19T09:32:18;17.60;99.90
52203;DHT22;38173;52.850;6.970;2023-09-19T09:34:44;17.70;99.90
52203;DHT22;38173;52.850;6.970;2023-09-19T09:37:18;17.80;99.90
52203;DHT22;38173;52.850;6.970;2023-09-19T09:39:57;17.90;99.90
52203;DHT22;38173;52.850;6.970;2023-09-19T09:42:34;17.90;99.90
52203;DHT22;38173;52.850;6.970;2023-09-19T09:45:21;18.00;99.90
52203;DHT22;38173;52.850;6.970;2023-09-19T09:48:00;18.20;99.90
52203;DHT22;38173;52.850;6.970;2023-09-19T09:50:31;18.30;99.90
52203;DHT22;38173;52.850;6.970;2023-09-19T09:53:26;18.50;99.90
52203;DHT22;38173;52.850;6.970;2023-09-19T09:56:01;18.50;99.90
52203;DHT22;38173;52.850;6.970;2023-09-19T09:58:49;18.50;99.90
52203;DHT22;38173;52.850;6.970;2023-09-19T10:01:15;18.60;99.90
52203;DHT22;38173;52.850;6.970;2023-09-19T10:03:43;18.70;99.90
52203;DHT22;38173;52.850;6.970;2023-09-19T10:06:14;18.70;99.90
52203;DHT22;38173;52.850;6.970;2023-09-19T10:09:08;18.70;99.90
52203;DHT22;38173;52.850;6.970;2023-09-19T10:11:45;18.80;99.90
52203;DHT22;38173;52.850;6.970;2023-09-19T10:14:15;18.80;99.90
52203;DHT22;38173;52.850;6.970;2023-09-19T10:16:48;18.90;99.90
52203;DHT22;38173;52.850;6.970;2023-09-19T10:19:23;19.00;99.90
52203;DHT22;38173;52.850;6.970;2023-09-19T10:21:55;19.10;99.90
52203;DHT22;38173;52.850;6.970;2023-09-19T10:24:24;19.10;99.90
52203;DHT22;38173;52.850;6.970;2023-09-19T10:26:53;19.10;99.90
52203;DHT22;38173;52.850;6.970;2023-09-19T10:29:21;19.10;99.90
52203;DHT22;38173;52.850;6.970;2023-09-19T10:31:48;19.20;99.90
52203;DHT22;38173;52.850;6.970;2023-09-19T10:34:17;19.20;99.90
52203;DHT22;38173;52.850;6.970;2023-09-19T10:36:46;19.20;99.90
52203;DHT22;38173;52.850;6.970;2023-09-19T10:39:16;19.20;99.90
52203;DHT22;38173;52.850;6.970;2023-09-19T10:41:53;19.20;99.90
52203;DHT22;38173;52.850;6.970;2023-09-19T10:44:24;19.30;99.90
52203;DHT22;38173;52.850;6.970;2023-09-19T10:46:51;19.40;99.90
52203;DHT22;38173;52.850;6.970;2023-09-19T10:49:22;19.40;99.90
52203;DHT22;38173;52.850;6.970;2023-09-19T10:51:50;19.30;99.90
52203;DHT22;38173;52.850;6.970;2023-09-19T10:54:21;19.30;99.90
52203;DHT22;38173;52.850;6.970;2023-09-19T10:56:49;19.20;99.90
52203;DHT22;38173;52.850;6.970;2023-09-19T10:59:21;19.20;99.90
52203;DHT22;38173;52.850;6.970;2023-09-19T11:01:48;19.10;99.90
52203;DHT22;38173;52.850;6.970;2023-09-19T11:04:36;19.00;99.90
52203;DHT22;38173;52.850;6.970;2023-09-19T11:07:09;19.10;99.90
52203;DHT22;38173;52.850;6.970;2023-09-19T11:09:54;19.30;99.90
52203;DHT22;38173;52.850;6.970;2023-09-19T11:15:01;19.60;99.90
52203;DHT22;38173;52.850;6.970;2023-09-19T11:17:39;19.60;99.90
52203;DHT22;38173;52.850;6.970;2023-09-19T11:25:41;19.60;99.90
52203;DHT22;38173;52.850;6.970;2023-09-19T11:30:50;19.70;99.90
52203;DHT22;38173;52.850;6.970;2023-09-19T11:33:27;19.70;99.90
52203;DHT22;38173;52.850;6.970;2023-09-19T11:36:13;19.70;99.90
52203;DHT22;38173;52.850;6.970;2023-09-19T11:46:33;19.80;99.90
52203;DHT22;38173;52.850;6.970;2023-09-19T11:49:09;19.70;99.90
52203;DHT22;38173;52.850;6.970;2023-09-19T11:51:41;19.70;99.90
52203;DHT22;38173;52.850;6.970;2023-09-19T11:54:11;19.70;99.90
52203;DHT22;38173;52.850;6.970;2023-09-19T11:56:48;19.80;99.90
52203;DHT22;38173;52.850;6.970;2023-09-19T11:59:23;20.00;99.90
52203;DHT22;38173;52.850;6.970;2023-09-19T12:01:58;20.20;99.90
52203;DHT22;38173;52.850;6.970;2023-09-19T12:04:37;20.10;99.90
52203;DHT22;38173;52.850;6.970;2023-09-19T12:07:16;20.00;99.90
52203;DHT22;38173;52.850;6.970;2023-09-19T12:09:45;19.90;99.90
52203;DHT22;38173;52.850;6.970;2023-09-19T12:12:24;19.70;99.90
52203;DHT22;38173;52.850;6.970;2023-09-19T12:14:53;19.70;99.90
52203;DHT22;38173;52.850;6.970;2023-09-19T12:17:19;19.70;99.90
52203;DHT22;38173;52.850;6.970;2023-09-19T12:19:55;19.60;99.90
52203;DHT22;38173;52.850;6.970;2023-09-19T12:22:21;19.40;99.90
52203;DHT22;38173;52.850;6.970;2023-09-19T12:24:47;19.30;99.90
52203;DHT22;38173;52.850;6.970;2023-09-19T12:27:13;19.10;99.90
52203;DHT22;38173;52.850;6.970;2023-09-19T12:29:46;19.10;99.90
52203;DHT22;38173;52.850;6.970;2023-09-19T12:32:14;19.00;99.90
52203;DHT22;38173;52.850;6.970;2023-09-19T12:34:42;19.10;99.90
52203;DHT22;38173;52.850;6.970;2023-09-19T12:37:09;19.20;99.90
52203;DHT22;38173;52.850;6.970;2023-09-19T12:39:45;19.40;99.90
52203;DHT22;38173;52.850;6.970;2023-09-19T12:42:26;19.60;99.90
52203;DHT22;38173;52.850;6.970;2023-09-19T12:45:01;19.70;99.90
52203;DHT22;38173;52.850;6.970;2023-09-19T12:47:27;19.70;99.90
52203;DHT22;38173;52.850;6.970;2023-09-19T12:50:10;19.60;99.90
52203;DHT22;38173;52.850;6.970;2023-09-19T12:52:48;19.50;99.90
52203;DHT22;38173;52.850;6.970;2023-09-19T12:58:11;19.50;99.90
52203;DHT22;38173;52.850;6.970;2023-09-19T13:00:44;19.50;99.90
52203;DHT22;38173;52.850;6.970;2023-09-19T13:03:14;19.50;99.90
52203;DHT22;38173;52.850;6.970;2023-09-19T13:06:00;19.50;99.90
52203;DHT22;38173;52.850;6.970;2023-09-19T13:08:35;19.50;99.90
52203;DHT22;38173;52.850;6.970;2023-09-19T13:11:06;19.40;99.90
52203;DHT22;38173;52.850;6.970;2023-09-19T13:13:33;19.50;99.90
52203;DHT22;38173;52.850;6.970;2023-09-19T13:16:00;19.50;99.90
52203;DHT22;38173;52.850;6.970;2023-09-19T13:18:27;19.50;99.90
52203;DHT22;38173;52.850;6.970;2023-09-19T13:21:08;19.50;99.90
52203;DHT22;38173;52.850;6.970;2023-09-19T13:23:44;19.40;99.90
52203;DHT22;38173;52.850;6.970;2023-09-19T13:26:10;19.30;99.90
52203;DHT22;38173;52.850;6.970;2023-09-19T13:28:38;19.30;99.90
52203;DHT22;38173;52.850;6.970;2023-09-19T13:31:03;19.20;99.90
52203;DHT22;38173;52.850;6.970;2023-09-19T13:33:29;19.10;99.90
52203;DHT22;38173;52.850;6.970;2023-09-19T13:35:56;19.10;99.90
52203;DHT22;38173;52.850;6.970;2023-09-19T13:38:23;19.10;99.90
52203;DHT22;38173;52.850;6.970;2023-09-19T13:40:50;19.00;99.90
52203;DHT22;38173;52.850;6.970;2023-09-19T13:43:18;18.90;99.90
52203;DHT22;38173;52.850;6.970;2023-09-19T13:45:43;18.90;99.90
52203;DHT22;38173;52.850;6.970;2023-09-19T13:48:09;18.80;99.90
52203;DHT22;38173;52.850;6.970;2023-09-19T13:50:37;18.70;99.90
52203;DHT22;38173;52.850;6.970;2023-09-19T13:53:08;18.70;99.90
52203;DHT22;38173;52.850;6.970;2023-09-19T13:55:33;18.60;99.90
52203;DHT22;38173;52.850;6.970;2023-09-19T13:57:59;18.60;99.90
52203;DHT22;38173;52.850;6.970;2023-09-19T14:00:25;18.60;99.90
52203;DHT22;38173;52.850;6.970;2023-09-19T14:02:51;18.50;99.90
52203;DHT22;38173;52.850;6.970;2023-09-19T14:05:17;18.50;99.90
52203;DHT22;38173;52.850;6.970;2023-09-19T14:07:44;18.60;99.90
52203;DHT22;38173;52.850;6.970;2023-09-19T14:10:11;18.60;99.90
52203;DHT22;38173;52.850;6.970;2023-09-19T14:12:38;18.60;99.90
52203;DHT22;38173;52.850;6.970;2023-09-19T14:15:06;18.70;99.90
52203;DHT22;38173;52.850;6.970;2023-09-19T14:17:33;18.70;99.90
52203;DHT22;38173;52.850;6.970;2023-09-19T14:20:00;18.70;99.90
52203;DHT22;38173;52.850;6.970;2023-09-19T14:22:26;18.80;99.90
52203;DHT22;38173;52.850;6.970;2023-09-19T14:24:52;18.90;99.90
52203;DHT22;38173;52.850;6.970;2023-09-19T14:27:21;19.00;99.90
52203;DHT22;38173;52.850;6.970;2023-09-19T14:29:47;19.00;99.90
52203;DHT22;38173;52.850;6.970;2023-09-19T14:32:13;19.10;99.90
52203;DHT22;38173;52.850;6.970;2023-09-19T14:34:39;19.10;99.90
52203;DHT22;38173;52.850;6.970;2023-09-19T14:37:08;19.10;99.90
52203;DHT22;38173;52.850;6.970;2023-09-19T14:39:34;19.20;99.90
52203;DHT22;38173;52.850;6.970;2023-09-19T14:41:59;19.20;99.90
52203;DHT22;38173;52.850;6.970;2023-09-19T14:44:25;19.20;99.90
52203;DHT22;38173;52.850;6.970;2023-09-19T14:46:51;19.10;99.90
52203;DHT22;38173;52.850;6.970;2023-09-19T14:49:17;19.00;99.90
52203;DHT22;38173;52.850;6.970;2023-09-19T14:51:42;19.10;99.90
52203;DHT22;38173;52.850;6.970;2023-09-19T14:54:13;19.10;99.90
52203;DHT22;38173;52.850;6.970;2023-09-19T14:56:42;19.10;99.90
52203;DHT22;38173;52.850;6.970;2023-09-19T14:59:08;19.10;99.90
52203;DHT22;38173;52.850;6.970;2023-09-19T15:01:36;19.00;99.90
52203;DHT22;38173;52.850;6.970;2023-09-19T15:04:02;19.00;99.90
52203;DHT22;38173;52.850;6.970;2023-09-19T15:06:27;19.00;99.90
52203;DHT22;38173;52.850;6.970;2023-09-19T15:08:53;18.90;99.90
52203;DHT22;38173;52.850;6.970;2023-09-19T15:11:20;18.90;99.90
52203;DHT22;38173;52.850;6.970;2023-09-19T15:13:46;18.90;99.90
52203;DHT22;38173;52.850;6.970;2023-09-19T15:16:13;18.80;99.90
52203;DHT22;38173;52.850;6.970;2023-09-19T15:18:43;18.80;99.90
52203;DHT22;38173;52.850;6.970;2023-09-19T15:21:11;18.80;99.90
52203;DHT22;38173;52.850;6.970;2023-09-19T15:23:38;18.80;99.90
52203;DHT22;38173;52.850;6.970;2023-09-19T15:26:06;18.80;99.90
52203;DHT22;38173;52.850;6.970;2023-09-19T15:28:33;18.80;99.90
52203;DHT22;38173;52.850;6.970;2023-09-19T15:31:04;18.80;99.90
52203;DHT22;38173;52.850;6.970;2023-09-19T15:33:30;18.90;99.90
52203;DHT22;38173;52.850;6.970;2023-09-19T15:36:07;18.90;99.90
52203;DHT22;38173;52.850;6.970;2023-09-19T15:38:56;18.90;99.90
52203;DHT22;38173;52.850;6.970;2023-09-19T15:41:26;18.90;99.90
52203;DHT22;38173;52.850;6.970;2023-09-19T15:43:53;18.80;99.90
52203;DHT22;38173;52.850;6.970;2023-09-19T15:46:20;18.70;99.90
52203;DHT22;38173;52.850;6.970;2023-09-19T15:48:47;18.60;99.90
52203;DHT22;38173;52.850;6.970;2023-09-19T15:51:13;18.70;99.90
52203;DHT22;38173;52.850;6.970;2023-09-19T15:53:45;18.60;99.90
52203;DHT22;38173;52.850;6.970;2023-09-19T15:56:13;18.60;99.90
52203;DHT22;38173;52.850;6.970;2023-09-19T15:58:43;18.60;99.90
52203;DHT22;38173;52.850;6.970;2023-09-19T16:01:09;18.50;99.90
52203;DHT22;38173;52.850;6.970;2023-09-19T16:03:43;18.40;99.90
52203;DHT22;38173;52.850;6.970;2023-09-19T16:06:09;18.40;99.90
52203;DHT22;38173;52.850;6.970;2023-09-19T16:08:46;18.40;99.90
52203;DHT22;38173;52.850;6.970;2023-09-19T16:11:13;18.40;99.90
52203;DHT22;38173;52.850;6.970;2023-09-19T16:13:40;18.40;99.90